Weather at Arizona Heart Hospital Heliport

Public forecast

Using degrees Fahrenheit for public forecast. Weather courtesy of forecast.io.

Closest aviation weather report (METAR) to Arizona Heart Hospital Heliport

Closest report is Phoenix Sky Harbor International Airport, 3.1 nm (5.8 km) SSE. Retrieved 2021/01/22 01:51 UTC (51 minutes ago):

KPHX 220151Z 17006KT 10SM FEW050 FEW080 FEW250 19/08 A2995 RMK AO2 SLP131 T01890078

Closest aviation forecast (TAF) to Arizona Heart Hospital Heliport

Closest forecast is Phoenix Sky Harbor International Airport, 3.1 nm (5.8 km) SSE. Retrieved 2021-01-22 00:42 UTC (2 hours ago):

TAF KPHX 212341Z 2200/2306 17005KT P6SM FEW050 SCT080 FM220100 24004KT P6SM FEW050 SCT070 FM220800 10004KT P6SM SCT050 FM221900 15007KT P6SM FEW050 SCT060 FM222300 24007KT P6SM SCT070